Transformer Ol — 3EZY5 — position and weather

sailwx.info

Track history (hours):
 
Tides and Currents Weather Stations Pressure Air Temp Water Temp Dewpoint Dewpoint Depression Visibility Wind Speed Wind Dir Waves Ship Positions

Transformer Ol

Last reported at 2015-Aug-17 03:14 UTC. Time now 2015-Aug-29 07:24 UTC.
Position N 01°17' E 104°13'.
Warning: this ship's position is 12 days out of date.

Length 169 m; draft 8.8 m.

Type: Cargo ship. MMSI: 372789000.

Date/timePositionNaut miles runAvg speedWind from/ knotsBaromVisibWave heightAir tempDewpointWater temp
2015-Aug-17 03:14N 01°17' E 104°13'811.7
2015-Aug-17 02:32N 01°15' E 104°05'1111.7
2015-Aug-17 01:33N 01°12' E 103°54'58 9.5
2015-Aug-16 19:27N 01°31' E 102°59'9512.0
2015-Aug-16 11:33N 02°23' E 101°39'2612.9
2015-Aug-16 09:33N 02°38' E 101°19'19 9.6
2015-Aug-16 07:33N 02°58' E 101°18'0 0.1
2015-Aug-16 04:32N 02°57' E 101°18'0 0.0
2015-Aug-16 02:32N 02°57' E 101°18'0 0.0
2015-Aug-16 01:26N 02°57' E 101°18'0 0.0
2015-Aug-15 23:29N 02°57' E 101°18'0 0.0
2015-Aug-15 21:32N 02°57' E 101°18'0 0.0
2015-Aug-15 18:32N 02°57' E 101°18'0 0.0
2015-Aug-15 16:32N 02°57' E 101°18'0 0.0
2015-Aug-15 14:32N 02°57' E 101°18'0 0.0
2015-Aug-15 12:32N 02°57' E 101°18'0 0.0
2015-Aug-15 09:32N 02°57' E 101°18'0 0.0
2015-Aug-15 07:23N 02°57' E 101°18'0 0.0
2015-Aug-15 06:32N 02°57' E 101°18'0 0.0
2015-Aug-15 04:32N 02°57' E 101°18'0 0.0
2015-Aug-15 01:26N 02°57' E 101°18'12 0.4
2015-Aug-13 21:33N 02°45' E 101°19'0 0.1
2015-Aug-13 18:12N 02°46' E 101°19'0 0.0
2015-Aug-13 17:33N 02°46' E 101°19'0 0.0
2015-Aug-13 16:27N 02°46' E 101°19'0 0.0
2015-Aug-13 13:27N 02°45' E 101°19'0 0.1
2015-Aug-13 12:21N 02°45' E 101°19'0 0.0
2015-Aug-13 10:33N 02°45' E 101°19'0 0.0
2015-Aug-13 08:27N 02°45' E 101°19'0 0.1
2015-Aug-13 06:33N 02°46' E 101°19'0 0.0
2015-Aug-13 05:12N 02°45' E 101°19'0 0.0
2015-Aug-13 03:33N 02°45' E 101°19'0 0.0
2015-Aug-13 02:24N 02°45' E 101°19'0 0.1
2015-Aug-13 00:33N 02°45' E 101°19'0 0.1
2015-Aug-12 23:27N 02°45' E 101°19'0 0.0
2015-Aug-12 21:33N 02°45' E 101°19'0 0.0
2015-Aug-12 10:33N 02°45' E 101°19'0 0.0
2015-Aug-12 09:21N 02°45' E 101°19'0 0.0
2015-Aug-12 08:33N 02°45' E 101°19'0 0.1
2015-Aug-12 06:15N 02°46' E 101°19'0 0.1
2015-Aug-12 05:33N 02°46' E 101°19'0 0.0
2015-Aug-12 03:33N 02°45' E 101°19'0 0.0
2015-Aug-12 02:27N 02°46' E 101°19'0 0.1
2015-Aug-12 01:30N 02°45' E 101°19'0 0.0
2015-Aug-12 00:33N 02°45' E 101°19'0 0.1
2015-Aug-11 22:30N 02°45' E 101°19'0 0.0
2015-Aug-11 20:30N 02°45' E 101°19'0 0.1
2015-Aug-11 19:33N 02°46' E 101°19'0 0.0
2015-Aug-11 17:33N 02°45' E 101°19'0 0.0
2015-Aug-11 15:33N 02°45' E 101°19'0 0.0
2015-Aug-11 14:21N 02°46' E 101°19'0 0.1
2015-Aug-11 12:33N 02°46' E 101°19'0 0.1
2015-Aug-11 10:33N 02°45' E 101°19'0 0.0
2015-Aug-11 08:21N 02°45' E 101°19'0 0.1
2015-Aug-11 05:33N 02°46' E 101°19'0 0.0
2015-Aug-11 03:33N 02°46' E 101°19'0 0.1
2015-Aug-11 02:33N 02°46' E 101°19'0 0.0
2015-Aug-11 00:33N 02°46' E 101°19'0 0.0
2015-Aug-10 22:33N 02°46' E 101°19'0 0.0
2015-Aug-10 20:30N 02°46' E 101°19'0 0.0
2015-Aug-10 18:15N 02°46' E 101°19'0 0.0
2015-Aug-10 16:33N 02°46' E 101°19'0 0.0
2015-Aug-10 14:33N 02°46' E 101°19'0 0.0
2015-Aug-10 12:24N 02°46' E 101°19'0 0.0
2015-Aug-10 10:30N 02°46' E 101°19'0 0.1
2015-Aug-10 09:30N 02°46' E 101°19'1 0.8
2015-Aug-10 08:34N 02°45' E 101°20'5 4.9
2015-Aug-10 07:33N 02°41' E 101°23'17 8.7
2015-Aug-10 05:33N 02°29' E 101°35'2411.9
2015-Aug-10 03:32N 02°15' E 101°54'12911.6
2015-Aug-09 16:23N 01°10' E 103°46'7 8.8
2015-Aug-09 15:33N 01°12' E 103°53'  
Track history (hours):
 
Tides and Currents Weather Stations Pressure Air Temp Water Temp Dewpoint Dewpoint Depression Visibility Wind Speed Wind Dir Waves Ship Positions

Transformer Ol

Last reported at 2015-Aug-17 03:14 UTC. Time now 2015-Aug-29 07:24 UTC.
Position N 01°17' E 104°13'.
Warning: this ship's position is 12 days out of date.

Length 169 m; draft 8.8 m.

Type: Cargo ship. MMSI: 372789000.

Date/timePositionNaut miles runAvg speedWind from/ knotsBaromVisibWave heightAir tempDewpointWater temp
2015-Aug-17 03:14N 01°17' E 104°13'811.7
2015-Aug-17 02:32N 01°15' E 104°05'1111.7
2015-Aug-17 01:33N 01°12' E 103°54'58 9.5
2015-Aug-16 19:27N 01°31' E 102°59'9512.0
2015-Aug-16 11:33N 02°23' E 101°39'2612.9
2015-Aug-16 09:33N 02°38' E 101°19'19 9.6
2015-Aug-16 07:33N 02°58' E 101°18'0 0.1
2015-Aug-16 04:32N 02°57' E 101°18'0 0.0
2015-Aug-16 02:32N 02°57' E 101°18'0 0.0
2015-Aug-16 01:26N 02°57' E 101°18'0 0.0
2015-Aug-15 23:29N 02°57' E 101°18'0 0.0
2015-Aug-15 21:32N 02°57' E 101°18'0 0.0
2015-Aug-15 18:32N 02°57' E 101°18'0 0.0
2015-Aug-15 16:32N 02°57' E 101°18'0 0.0
2015-Aug-15 14:32N 02°57' E 101°18'0 0.0
2015-Aug-15 12:32N 02°57' E 101°18'0 0.0
2015-Aug-15 09:32N 02°57' E 101°18'0 0.0
2015-Aug-15 07:23N 02°57' E 101°18'0 0.0
2015-Aug-15 06:32N 02°57' E 101°18'0 0.0
2015-Aug-15 04:32N 02°57' E 101°18'0 0.0
2015-Aug-15 01:26N 02°57' E 101°18'12 0.4
2015-Aug-13 21:33N 02°45' E 101°19'0 0.1
2015-Aug-13 18:12N 02°46' E 101°19'0 0.0
2015-Aug-13 17:33N 02°46' E 101°19'0 0.0
2015-Aug-13 16:27N 02°46' E 101°19'0 0.0
2015-Aug-13 13:27N 02°45' E 101°19'0 0.1
2015-Aug-13 12:21N 02°45' E 101°19'0 0.0
2015-Aug-13 10:33N 02°45' E 101°19'0 0.0
2015-Aug-13 08:27N 02°45' E 101°19'0 0.1
2015-Aug-13 06:33N 02°46' E 101°19'0 0.0
2015-Aug-13 05:12N 02°45' E 101°19'0 0.0
2015-Aug-13 03:33N 02°45' E 101°19'0 0.0
2015-Aug-13 02:24N 02°45' E 101°19'0 0.1
2015-Aug-13 00:33N 02°45' E 101°19'0 0.1
2015-Aug-12 23:27N 02°45' E 101°19'0 0.0
2015-Aug-12 21:33N 02°45' E 101°19'0 0.0
2015-Aug-12 10:33N 02°45' E 101°19'0 0.0
2015-Aug-12 09:21N 02°45' E 101°19'0 0.0
2015-Aug-12 08:33N 02°45' E 101°19'0 0.1
2015-Aug-12 06:15N 02°46' E 101°19'0 0.1
2015-Aug-12 05:33N 02°46' E 101°19'0 0.0
2015-Aug-12 03:33N 02°45' E 101°19'0 0.0
2015-Aug-12 02:27N 02°46' E 101°19'0 0.1
2015-Aug-12 01:30N 02°45' E 101°19'0 0.0
2015-Aug-12 00:33N 02°45' E 101°19'0 0.1
2015-Aug-11 22:30N 02°45' E 101°19'0 0.0
2015-Aug-11 20:30N 02°45' E 101°19'0 0.1
2015-Aug-11 19:33N 02°46' E 101°19'0 0.0
2015-Aug-11 17:33N 02°45' E 101°19'0 0.0
2015-Aug-11 15:33N 02°45' E 101°19'0 0.0
2015-Aug-11 14:21N 02°46' E 101°19'0 0.1
2015-Aug-11 12:33N 02°46' E 101°19'0 0.1
2015-Aug-11 10:33N 02°45' E 101°19'0 0.0
2015-Aug-11 08:21N 02°45' E 101°19'0 0.1
2015-Aug-11 05:33N 02°46' E 101°19'0 0.0
2015-Aug-11 03:33N 02°46' E 101°19'0 0.1
2015-Aug-11 02:33N 02°46' E 101°19'0 0.0
2015-Aug-11 00:33N 02°46' E 101°19'0 0.0
2015-Aug-10 22:33N 02°46' E 101°19'0 0.0
2015-Aug-10 20:30N 02°46' E 101°19'0 0.0
2015-Aug-10 18:15N 02°46' E 101°19'0 0.0
2015-Aug-10 16:33N 02°46' E 101°19'0 0.0
2015-Aug-10 14:33N 02°46' E 101°19'0 0.0
2015-Aug-10 12:24N 02°46' E 101°19'0 0.0
2015-Aug-10 10:30N 02°46' E 101°19'0 0.1
2015-Aug-10 09:30N 02°46' E 101°19'1 0.8
2015-Aug-10 08:34N 02°45' E 101°20'5 4.9
2015-Aug-10 07:33N 02°41' E 101°23'17 8.7
2015-Aug-10 05:33N 02°29' E 101°35'2411.9
2015-Aug-10 03:32N 02°15' E 101°54'12911.6
2015-Aug-09 16:23N 01°10' E 103°46'7 8.8
2015-Aug-09 15:33N 01°12' E 103°53'  

Dump ship's entire track history